sensor_id;sensor_type;location;lat;lon;timestamp;pressure;altitude;pressure_sealevel;temperature;humidity
59053;BME280;44843;44.728;10.396;2023-09-18T00:00:20;100762.53;;;23.11;nan
59053;BME280;44843;44.728;10.396;2023-09-18T00:02:47;100750.91;;;23.12;nan
59053;BME280;44843;44.728;10.396;2023-09-18T00:05:12;100761.88;;;23.09;nan
59053;BME280;44843;44.728;10.396;2023-09-18T00:07:41;100760.53;;;23.05;nan
59053;BME280;44843;44.728;10.396;2023-09-18T00:10:08;100753.22;;;23.07;nan
59053;BME280;44843;44.728;10.396;2023-09-18T00:12:34;100753.88;;;23.01;nan
59053;BME280;44843;44.728;10.396;2023-09-18T00:14:59;100755.94;;;22.89;nan
59053;BME280;44843;44.728;10.396;2023-09-18T00:17:24;100737.91;;;23.01;nan
59053;BME280;44843;44.728;10.396;2023-09-18T00:19:50;100734.59;;;23.07;nan
59053;BME280;44843;44.728;10.396;2023-09-18T00:22:16;100730.25;;;23.06;nan
59053;BME280;44843;44.728;10.396;2023-09-18T00:24:42;100734.75;;;23.06;nan
59053;BME280;44843;44.728;10.396;2023-09-18T00:27:07;100718.81;;;23.14;nan
59053;BME280;44843;44.728;10.396;2023-09-18T00:29:33;100698.03;;;23.09;nan
59053;BME280;44843;44.728;10.396;2023-09-18T00:31:58;100693.38;;;23.03;nan
59053;BME280;44843;44.728;10.396;2023-09-18T00:34:23;100708.50;;;23.02;nan
59053;BME280;44843;44.728;10.396;2023-09-18T00:36:49;100721.63;;;23.04;nan
59053;BME280;44843;44.728;10.396;2023-09-18T00:39:14;100722.13;;;23.08;nan
59053;BME280;44843;44.728;10.396;2023-09-18T00:41:40;100713.75;;;22.94;nan
59053;BME280;44843;44.728;10.396;2023-09-18T00:44:06;100707.94;;;22.99;nan
59053;BME280;44843;44.728;10.396;2023-09-18T00:46:32;100698.47;;;22.96;nan
59053;BME280;44843;44.728;10.396;2023-09-18T00:48:58;100699.16;;;22.98;nan
59053;BME280;44843;44.728;10.396;2023-09-18T00:51:23;100684.56;;;23.11;nan
59053;BME280;44843;44.728;10.396;2023-09-18T00:53:49;100689.56;;;23.06;nan
59053;BME280;44843;44.728;10.396;2023-09-18T00:56:15;100694.19;;;23.03;nan
59053;BME280;44843;44.728;10.396;2023-09-18T00:58:40;100696.63;;;22.89;nan
59053;BME280;44843;44.728;10.396;2023-09-18T01:01:06;100687.84;;;22.96;nan
59053;BME280;44843;44.728;10.396;2023-09-18T01:03:32;100675.00;;;22.83;nan
59053;BME280;44843;44.728;10.396;2023-09-18T01:05:57;100665.38;;;22.91;nan
59053;BME280;44843;44.728;10.396;2023-09-18T01:08:23;100676.00;;;22.82;nan
59053;BME280;44843;44.728;10.396;2023-09-18T01:10:59;100678.16;;;22.79;nan
59053;BME280;44843;44.728;10.396;2023-09-18T01:13:30;100684.28;;;22.71;nan
59053;BME280;44843;44.728;10.396;2023-09-18T01:16:09;100689.59;;;22.71;nan
59053;BME280;44843;44.728;10.396;2023-09-18T01:18:35;100693.94;;;22.80;nan
59053;BME280;44843;44.728;10.396;2023-09-18T01:21:00;100674.47;;;22.72;nan
59053;BME280;44843;44.728;10.396;2023-09-18T01:23:26;100676.59;;;23.02;nan
59053;BME280;44843;44.728;10.396;2023-09-18T01:25:51;100680.06;;;23.03;nan
59053;BME280;44843;44.728;10.396;2023-09-18T01:28:17;100674.38;;;22.98;nan
59053;BME280;44843;44.728;10.396;2023-09-18T01:30:42;100656.25;;;22.93;nan
59053;BME280;44843;44.728;10.396;2023-09-18T01:33:09;100643.94;;;22.84;nan
59053;BME280;44843;44.728;10.396;2023-09-18T01:35:36;100651.28;;;22.98;nan
59053;BME280;44843;44.728;10.396;2023-09-18T01:38:02;100652.25;;;22.97;nan
59053;BME280;44843;44.728;10.396;2023-09-18T01:40:28;100650.94;;;22.85;nan
59053;BME280;44843;44.728;10.396;2023-09-18T01:42:54;100652.25;;;22.81;nan
59053;BME280;44843;44.728;10.396;2023-09-18T01:45:19;100642.94;;;22.77;nan
59053;BME280;44843;44.728;10.396;2023-09-18T01:47:45;100642.09;;;22.84;nan
59053;BME280;44843;44.728;10.396;2023-09-18T01:50:11;100647.28;;;22.86;nan
59053;BME280;44843;44.728;10.396;2023-09-18T01:52:36;100657.72;;;22.79;nan
59053;BME280;44843;44.728;10.396;2023-09-18T01:55:02;100664.03;;;22.87;nan
59053;BME280;44843;44.728;10.396;2023-09-18T01:57:29;100656.25;;;22.85;nan
59053;BME280;44843;44.728;10.396;2023-09-18T01:59:55;100660.03;;;22.74;nan
59053;BME280;44843;44.728;10.396;2023-09-18T02:02:20;100653.19;;;22.72;nan
59053;BME280;44843;44.728;10.396;2023-09-18T02:04:45;100636.75;;;22.68;nan
59053;BME280;44843;44.728;10.396;2023-09-18T02:07:11;100630.09;;;22.64;nan
59053;BME280;44843;44.728;10.396;2023-09-18T02:09:36;100611.03;;;22.77;nan
59053;BME280;44843;44.728;10.396;2023-09-18T02:12:02;100601.38;;;22.76;nan
59053;BME280;44843;44.728;10.396;2023-09-18T02:14:28;100594.63;;;22.90;nan
59053;BME280;44843;44.728;10.396;2023-09-18T02:16:56;100584.66;;;23.08;nan
59053;BME280;44843;44.728;10.396;2023-09-18T02:19:21;100579.88;;;23.20;nan
59053;BME280;44843;44.728;10.396;2023-09-18T02:21:47;100587.00;;;23.11;nan
59053;BME280;44843;44.728;10.396;2023-09-18T02:24:12;100588.00;;;23.10;nan
59053;BME280;44843;44.728;10.396;2023-09-18T02:26:38;100594.13;;;23.11;nan
59053;BME280;44843;44.728;10.396;2023-09-18T02:29:07;100581.31;;;22.98;nan
59053;BME280;44843;44.728;10.396;2023-09-18T02:31:35;100583.81;;;22.99;nan
59053;BME280;44843;44.728;10.396;2023-09-18T02:34:00;100582.31;;;22.97;nan
59053;BME280;44843;44.728;10.396;2023-09-18T02:36:26;100575.69;;;23.01;nan
59053;BME280;44843;44.728;10.396;2023-09-18T02:38:51;100572.81;;;22.86;nan
59053;BME280;44843;44.728;10.396;2023-09-18T02:41:16;100570.00;;;22.79;nan
59053;BME280;44843;44.728;10.396;2023-09-18T02:43:42;100563.53;;;22.82;nan
59053;BME280;44843;44.728;10.396;2023-09-18T02:46:08;100549.56;;;22.80;nan
59053;BME280;44843;44.728;10.396;2023-09-18T02:48:33;100537.25;;;22.71;nan
59053;BME280;44843;44.728;10.396;2023-09-18T02:51:00;100531.44;;;22.59;nan
59053;BME280;44843;44.728;10.396;2023-09-18T02:53:25;100542.91;;;22.59;nan
59053;BME280;44843;44.728;10.396;2023-09-18T02:55:53;100536.91;;;22.49;nan
59053;BME280;44843;44.728;10.396;2023-09-18T02:58:19;100546.69;;;22.49;nan
59053;BME280;44843;44.728;10.396;2023-09-18T03:00:46;100556.13;;;22.43;nan
59053;BME280;44843;44.728;10.396;2023-09-18T03:03:12;100569.94;;;22.47;nan
59053;BME280;44843;44.728;10.396;2023-09-18T03:05:39;100562.00;;;22.55;nan
59053;BME280;44843;44.728;10.396;2023-09-18T03:08:05;100566.44;;;22.38;nan
59053;BME280;44843;44.728;10.396;2023-09-18T03:10:41;100568.28;;;22.46;nan
59053;BME280;44843;44.728;10.396;2023-09-18T03:13:08;100572.25;;;22.50;nan
59053;BME280;44843;44.728;10.396;2023-09-18T03:15:34;100587.19;;;22.42;nan
59053;BME280;44843;44.728;10.396;2023-09-18T03:18:00;100593.31;;;22.35;nan
59053;BME280;44843;44.728;10.396;2023-09-18T03:20:29;100589.81;;;22.34;nan
59053;BME280;44843;44.728;10.396;2023-09-18T03:22:57;100581.06;;;22.42;nan
59053;BME280;44843;44.728;10.396;2023-09-18T03:25:23;100582.88;;;22.50;nan
59053;BME280;44843;44.728;10.396;2023-09-18T03:27:55;100582.38;;;22.38;nan
59053;BME280;44843;44.728;10.396;2023-09-18T03:30:21;100577.59;;;22.58;nan
59053;BME280;44843;44.728;10.396;2023-09-18T03:32:49;100569.16;;;22.54;nan
59053;BME280;44843;44.728;10.396;2023-09-18T03:35:14;100568.28;;;22.46;nan
59053;BME280;44843;44.728;10.396;2023-09-18T03:37:44;100561.16;;;22.46;nan
59053;BME280;44843;44.728;10.396;2023-09-18T03:40:10;100557.00;;;22.52;nan
59053;BME280;44843;44.728;10.396;2023-09-18T03:42:36;100574.75;;;22.35;nan
59053;BME280;44843;44.728;10.396;2023-09-18T03:45:01;100584.34;;;22.36;nan
59053;BME280;44843;44.728;10.396;2023-09-18T03:47:28;100585.88;;;22.47;nan
59053;BME280;44843;44.728;10.396;2023-09-18T03:49:53;100581.53;;;22.37;nan
59053;BME280;44843;44.728;10.396;2023-09-18T03:52:18;100585.50;;;22.33;nan
59053;BME280;44843;44.728;10.396;2023-09-18T03:54:44;100579.72;;;22.38;nan
59053;BME280;44843;44.728;10.396;2023-09-18T03:57:09;100575.84;;;22.24;nan
59053;BME280;44843;44.728;10.396;2023-09-18T03:59:34;100582.16;;;22.23;nan
59053;BME280;44843;44.728;10.396;2023-09-18T04:02:00;100593.03;;;22.12;nan
59053;BME280;44843;44.728;10.396;2023-09-18T04:04:25;100591.88;;;22.14;nan
59053;BME280;44843;44.728;10.396;2023-09-18T04:06:51;100589.19;;;22.06;nan
59053;BME280;44843;44.728;10.396;2023-09-18T04:09:16;100591.84;;;22.06;nan
59053;BME280;44843;44.728;10.396;2023-09-18T04:11:43;100587.72;;;22.12;nan
59053;BME280;44843;44.728;10.396;2023-09-18T04:14:08;100587.88;;;22.10;nan
59053;BME280;44843;44.728;10.396;2023-09-18T04:16:34;100591.38;;;22.11;nan
59053;BME280;44843;44.728;10.396;2023-09-18T04:19:01;100602.94;;;22.01;nan
59053;BME280;44843;44.728;10.396;2023-09-18T04:21:26;100604.66;;;22.19;nan
59053;BME280;44843;44.728;10.396;2023-09-18T04:23:52;100605.34;;;22.21;nan
59053;BME280;44843;44.728;10.396;2023-09-18T04:26:25;100598.38;;;22.20;nan
59053;BME280;44843;44.728;10.396;2023-09-18T04:28:55;100594.97;;;22.36;nan
59053;BME280;44843;44.728;10.396;2023-09-18T04:31:21;100594.19;;;22.44;nan
59053;BME280;44843;44.728;10.396;2023-09-18T04:33:46;100591.53;;;22.44;nan
59053;BME280;44843;44.728;10.396;2023-09-18T04:36:11;100577.13;;;22.54;nan
59053;BME280;44843;44.728;10.396;2023-09-18T04:38:37;100580.22;;;22.50;nan
59053;BME280;44843;44.728;10.396;2023-09-18T04:41:02;100581.19;;;22.32;nan
59053;BME280;44843;44.728;10.396;2023-09-18T04:43:28;100578.53;;;22.32;nan
59053;BME280;44843;44.728;10.396;2023-09-18T04:45:55;100581.72;;;22.10;nan
59053;BME280;44843;44.728;10.396;2023-09-18T04:48:21;100575.19;;;22.22;nan
59053;BME280;44843;44.728;10.396;2023-09-18T04:50:46;100584.09;;;22.13;nan
59053;BME280;44843;44.728;10.396;2023-09-18T04:53:12;100591.38;;;22.19;nan
59053;BME280;44843;44.728;10.396;2023-09-18T04:55:38;100597.78;;;22.26;nan
59053;BME280;44843;44.728;10.396;2023-09-18T04:58:04;100606.44;;;22.28;nan
59053;BME280;44843;44.728;10.396;2023-09-18T05:00:30;100608.91;;;22.30;nan
59053;BME280;44843;44.728;10.396;2023-09-18T05:02:57;100613.88;;;22.25;nan
59053;BME280;44843;44.728;10.396;2023-09-18T05:05:25;100614.56;;;22.35;nan
59053;BME280;44843;44.728;10.396;2023-09-18T05:07:51;100593.78;;;22.22;nan
59053;BME280;44843;44.728;10.396;2023-09-18T05:10:16;100589.41;;;22.21;nan
59053;BME280;44843;44.728;10.396;2023-09-18T05:12:42;100595.28;;;21.98;nan
59053;BME280;44843;44.728;10.396;2023-09-18T05:15:08;100585.22;;;22.10;nan
59053;BME280;44843;44.728;10.396;2023-09-18T05:17:45;100594.03;;;22.19;nan
59053;BME280;44843;44.728;10.396;2023-09-18T05:20:19;100599.31;;;22.37;nan
59053;BME280;44843;44.728;10.396;2023-09-18T05:22:45;100600.81;;;22.39;nan
59053;BME280;44843;44.728;10.396;2023-09-18T05:25:11;100609.13;;;22.45;nan
59053;BME280;44843;44.728;10.396;2023-09-18T05:27:37;100616.38;;;22.34;nan
59053;BME280;44843;44.728;10.396;2023-09-18T05:30:14;100615.03;;;22.22;nan
59053;BME280;44843;44.728;10.396;2023-09-18T05:32:41;100635.72;;;22.18;nan
59053;BME280;44843;44.728;10.396;2023-09-18T05:35:08;100636.75;;;22.26;nan
59053;BME280;44843;44.728;10.396;2023-09-18T05:37:39;100627.19;;;22.33;nan
59053;BME280;44843;44.728;10.396;2023-09-18T05:40:09;100625.88;;;22.45;nan
59053;BME280;44843;44.728;10.396;2023-09-18T05:42:40;100622.69;;;22.33;nan
59053;BME280;44843;44.728;10.396;2023-09-18T05:45:08;100624.66;;;22.23;nan
59053;BME280;44843;44.728;10.396;2023-09-18T05:47:34;100622.13;;;22.21;nan
59053;BME280;44843;44.728;10.396;2023-09-18T05:50:02;61389.06;;;-146.16;100.00
59053;BME280;44843;44.728;10.396;2023-09-18T05:52:29;100623.81;;;22.73;nan
59053;BME280;44843;44.728;10.396;2023-09-18T05:54:54;100627.16;;;22.83;nan
59053;BME280;44843;44.728;10.396;2023-09-18T05:57:20;100618.38;;;22.83;nan
59053;BME280;44843;44.728;10.396;2023-09-18T05:59:45;100613.03;;;22.91;nan
59053;BME280;44843;44.728;10.396;2023-09-18T06:02:11;100619.41;;;23.07;nan
59053;BME280;44843;44.728;10.396;2023-09-18T06:04:37;100601.63;;;23.15;nan
59053;BME280;44843;44.728;10.396;2023-09-18T06:07:06;100565.38;;;23.06;nan
59053;BME280;44843;44.728;10.396;2023-09-18T06:09:31;100556.06;;;22.94;nan
59053;BME280;44843;44.728;10.396;2023-09-18T06:11:57;100555.03;;;22.87;nan
59053;BME280;44843;44.728;10.396;2023-09-18T06:14:23;100538.28;;;22.70;nan
59053;BME280;44843;44.728;10.396;2023-09-18T06:16:49;100536.94;;;22.66;nan
59053;BME280;44843;44.728;10.396;2023-09-18T06:19:15;100535.94;;;22.75;nan
59053;BME280;44843;44.728;10.396;2023-09-18T06:21:42;100536.94;;;22.74;nan
59053;BME280;44843;44.728;10.396;2023-09-18T06:24:08;100564.16;;;22.76;nan
59053;BME280;44843;44.728;10.396;2023-09-18T06:26:33;100575.00;;;22.74;nan
59053;BME280;44843;44.728;10.396;2023-09-18T06:28:58;100559.56;;;22.94;nan
59053;BME280;44843;44.728;10.396;2023-09-18T06:31:24;100561.06;;;23.13;nan
59053;BME280;44843;44.728;10.396;2023-09-18T06:33:49;100555.72;;;23.13;nan
59053;BME280;44843;44.728;10.396;2023-09-18T06:36:15;100563.91;;;23.20;nan
59053;BME280;44843;44.728;10.396;2023-09-18T06:38:40;100568.72;;;23.24;nan
59053;BME280;44843;44.728;10.396;2023-09-18T06:41:05;100563.75;;;23.05;nan
59053;BME280;44843;44.728;10.396;2023-09-18T06:43:31;100577.00;;;22.97;nan
59053;BME280;44843;44.728;10.396;2023-09-18T06:45:56;100564.56;;;23.06;nan
59053;BME280;44843;44.728;10.396;2023-09-18T06:48:23;100564.56;;;23.14;nan
59053;BME280;44843;44.728;10.396;2023-09-18T06:50:51;100565.88;;;23.01;nan
59053;BME280;44843;44.728;10.396;2023-09-18T06:53:17;100555.22;;;23.34;nan
59053;BME280;44843;44.728;10.396;2023-09-18T06:55:42;100573.38;;;23.14;nan
59053;BME280;44843;44.728;10.396;2023-09-18T06:58:07;100571.53;;;23.23;nan
59053;BME280;44843;44.728;10.396;2023-09-18T07:00:33;100550.59;;;23.12;nan
59053;BME280;44843;44.728;10.396;2023-09-18T07:02:58;100541.78;;;23.19;nan
59053;BME280;44843;44.728;10.396;2023-09-18T07:05:24;100526.91;;;23.58;nan
59053;BME280;44843;44.728;10.396;2023-09-18T07:07:49;100522.88;;;23.70;nan
59053;BME280;44843;44.728;10.396;2023-09-18T07:10:15;100515.72;;;23.79;nan
59053;BME280;44843;44.728;10.396;2023-09-18T07:12:40;100521.59;;;23.58;nan
59053;BME280;44843;44.728;10.396;2023-09-18T07:15:06;100521.09;;;23.54;nan
59053;BME280;44843;44.728;10.396;2023-09-18T07:17:34;100534.03;;;23.65;nan
59053;BME280;44843;44.728;10.396;2023-09-18T07:20:00;100538.41;;;23.50;nan
59053;BME280;44843;44.728;10.396;2023-09-18T07:22:26;100540.09;;;23.35;nan
59053;BME280;44843;44.728;10.396;2023-09-18T07:24:51;100547.25;;;23.42;nan
59053;BME280;44843;44.728;10.396;2023-09-18T07:27:17;100524.41;;;23.64;nan
59053;BME280;44843;44.728;10.396;2023-09-18T07:29:42;100513.66;;;23.97;nan
59053;BME280;44843;44.728;10.396;2023-09-18T07:32:07;100506.72;;;23.88;nan
59053;BME280;44843;44.728;10.396;2023-09-18T07:34:34;100509.66;;;24.01;nan
59053;BME280;44843;44.728;10.396;2023-09-18T07:37:00;100512.72;;;24.13;nan
59053;BME280;44843;44.728;10.396;2023-09-18T07:39:25;100515.19;;;24.23;nan
59053;BME280;44843;44.728;10.396;2023-09-18T07:41:51;100504.88;;;24.20;nan
59053;BME280;44843;44.728;10.396;2023-09-18T07:44:21;100515.44;;;24.05;nan
59053;BME280;44843;44.728;10.396;2023-09-18T07:46:47;100511.25;;;23.79;nan
59053;BME280;44843;44.728;10.396;2023-09-18T07:49:13;100514.09;;;23.61;nan
59053;BME280;44843;44.728;10.396;2023-09-18T07:51:39;100527.69;;;23.75;nan
59053;BME280;44843;44.728;10.396;2023-09-18T07:54:06;100523.22;;;23.75;nan
59053;BME280;44843;44.728;10.396;2023-09-18T07:56:32;100513.66;;;23.97;nan
59053;BME280;44843;44.728;10.396;2023-09-18T07:58:59;100501.66;;;24.01;nan
59053;BME280;44843;44.728;10.396;2023-09-18T08:01:25;100507.94;;;24.09;nan
59053;BME280;44843;44.728;10.396;2023-09-18T08:03:50;100514.38;;;24.45;nan
59053;BME280;44843;44.728;10.396;2023-09-18T08:06:16;100501.06;;;24.45;nan
59053;BME280;44843;44.728;10.396;2023-09-18T08:08:44;100493.44;;;24.42;nan
59053;BME280;44843;44.728;10.396;2023-09-18T08:11:09;100484.72;;;24.49;nan
59053;BME280;44843;44.728;10.396;2023-09-18T08:13:34;100481.91;;;24.42;nan
59053;BME280;44843;44.728;10.396;2023-09-18T08:16:01;100481.38;;;24.46;nan
59053;BME280;44843;44.728;10.396;2023-09-18T08:18:26;100493.22;;;24.52;nan
59053;BME280;44843;44.728;10.396;2023-09-18T08:20:52;100494.59;;;24.40;nan
59053;BME280;44843;44.728;10.396;2023-09-18T08:23:18;100484.13;;;24.38;nan
59053;BME280;44843;44.728;10.396;2023-09-18T08:25:44;100482.59;;;24.67;nan
59053;BME280;44843;44.728;10.396;2023-09-18T08:28:09;100478.63;;;25.01;nan
59053;BME280;44843;44.728;10.396;2023-09-18T08:30:34;100470.00;;;25.14;nan
59053;BME280;44843;44.728;10.396;2023-09-18T08:33:02;100463.06;;;24.90;nan
59053;BME280;44843;44.728;10.396;2023-09-18T08:35:27;100455.81;;;24.98;nan
59053;BME280;44843;44.728;10.396;2023-09-18T08:37:54;100469.16;;;24.98;nan
59053;BME280;44843;44.728;10.396;2023-09-18T08:40:20;100449.59;;;25.21;nan
59053;BME280;44843;44.728;10.396;2023-09-18T08:42:47;100447.13;;;25.19;nan
59053;BME280;44843;44.728;10.396;2023-09-18T08:45:23;100439.63;;;24.85;nan
59053;BME280;44843;44.728;10.396;2023-09-18T08:47:51;100455.88;;;24.90;nan
59053;BME280;44843;44.728;10.396;2023-09-18T08:50:17;100449.81;;;24.81;nan
59053;BME280;44843;44.728;10.396;2023-09-18T08:52:43;100451.09;;;24.85;nan
59053;BME280;44843;44.728;10.396;2023-09-18T08:55:10;100448.16;;;24.80;nan
59053;BME280;44843;44.728;10.396;2023-09-18T08:57:36;100455.16;;;24.96;nan
59053;BME280;44843;44.728;10.396;2023-09-18T09:00:02;100459.41;;;24.91;nan
59053;BME280;44843;44.728;10.396;2023-09-18T09:02:31;100460.97;;;25.00;nan
59053;BME280;44843;44.728;10.396;2023-09-18T09:04:56;100465.34;;;24.78;nan
59053;BME280;44843;44.728;10.396;2023-09-18T09:07:22;100473.47;;;24.84;nan
59053;BME280;44843;44.728;10.396;2023-09-18T09:09:47;100465.63;;;24.83;nan
59053;BME280;44843;44.728;10.396;2023-09-18T09:12:12;100471.97;;;24.82;nan
59053;BME280;44843;44.728;10.396;2023-09-18T09:14:38;100470.09;;;24.67;nan
59053;BME280;44843;44.728;10.396;2023-09-18T09:17:04;100458.19;;;24.55;nan
59053;BME280;44843;44.728;10.396;2023-09-18T09:19:31;100464.91;;;24.51;nan
59053;BME280;44843;44.728;10.396;2023-09-18T09:21:58;100455.50;;;24.78;nan
59053;BME280;44843;44.728;10.396;2023-09-18T09:24:42;100450.88;;;24.72;nan
59053;BME280;44843;44.728;10.396;2023-09-18T09:27:09;100463.22;;;24.73;nan
59053;BME280;44843;44.728;10.396;2023-09-18T09:29:35;100476.13;;;24.61;nan
59053;BME280;44843;44.728;10.396;2023-09-18T09:32:14;100459.88;;;24.56;nan
59053;BME280;44843;44.728;10.396;2023-09-18T09:34:41;100454.81;;;24.61;nan
59053;BME280;44843;44.728;10.396;2023-09-18T09:37:07;100444.91;;;24.70;nan
59053;BME280;44843;44.728;10.396;2023-09-18T09:39:33;100441.53;;;24.76;nan
59053;BME280;44843;44.728;10.396;2023-09-18T09:42:00;100443.28;;;24.69;nan
59053;BME280;44843;44.728;10.396;2023-09-18T09:44:27;100443.97;;;24.63;nan
59053;BME280;44843;44.728;10.396;2023-09-18T09:46:54;100436.69;;;24.57;nan
59053;BME280;44843;44.728;10.396;2023-09-18T09:49:19;100432.06;;;24.51;nan
59053;BME280;44843;44.728;10.396;2023-09-18T09:51:45;100436.03;;;24.55;nan
59053;BME280;44843;44.728;10.396;2023-09-18T09:54:11;100446.25;;;24.51;nan
59053;BME280;44843;44.728;10.396;2023-09-18T09:59:06;100410.69;;;24.59;nan
59053;BME280;44843;44.728;10.396;2023-09-18T10:01:33;100407.03;;;24.60;nan
59053;BME280;44843;44.728;10.396;2023-09-18T10:04:03;100403.63;;;24.66;nan
59053;BME280;44843;44.728;10.396;2023-09-18T10:06:34;100398.28;;;24.66;nan
59053;BME280;44843;44.728;10.396;2023-09-18T10:09:00;100405.47;;;24.65;nan
59053;BME280;44843;44.728;10.396;2023-09-18T10:11:26;100412.56;;;24.73;nan
59053;BME280;44843;44.728;10.396;2023-09-18T10:13:59;100403.31;;;24.84;nan
59053;BME280;44843;44.728;10.396;2023-09-18T10:16:26;100403.28;;;24.69;nan
59053;BME280;44843;44.728;10.396;2023-09-18T10:19:17;100403.56;;;24.74;nan
59053;BME280;44843;44.728;10.396;2023-09-18T10:22:01;100406.31;;;24.81;nan
59053;BME280;44843;44.728;10.396;2023-09-18T10:24:34;100425.66;;;24.98;nan
59053;BME280;44843;44.728;10.396;2023-09-18T10:27:06;100425.16;;;24.79;nan
59053;BME280;44843;44.728;10.396;2023-09-18T10:29:35;100441.47;;;24.61;nan
59053;BME280;44843;44.728;10.396;2023-09-18T10:32:07;100425.81;;;24.81;nan
59053;BME280;44843;44.728;10.396;2023-09-18T10:34:33;100412.78;;;24.86;nan
59053;BME280;44843;44.728;10.396;2023-09-18T10:37:01;100410.56;;;25.05;nan
59053;BME280;44843;44.728;10.396;2023-09-18T10:39:30;100406.06;;;24.91;nan
59053;BME280;44843;44.728;10.396;2023-09-18T10:41:59;100416.75;;;24.91;nan
59053;BME280;44843;44.728;10.396;2023-09-18T10:44:28;100429.31;;;24.97;nan
59053;BME280;44843;44.728;10.396;2023-09-18T10:46:53;100424.19;;;25.10;nan
59053;BME280;44843;44.728;10.396;2023-09-18T10:49:19;100422.78;;;24.84;nan
59053;BME280;44843;44.728;10.396;2023-09-18T10:51:48;100410.84;;;24.80;nan
59053;BME280;44843;44.728;10.396;2023-09-18T10:54:21;100386.22;;;24.93;nan
59053;BME280;44843;44.728;10.396;2023-09-18T10:56:47;100404.06;;;24.93;nan
59053;BME280;44843;44.728;10.396;2023-09-18T10:59:14;100393.47;;;24.99;nan
59053;BME280;44843;44.728;10.396;2023-09-18T11:01:41;100392.28;;;25.02;nan
59053;BME280;44843;44.728;10.396;2023-09-18T11:04:08;100393.00;;;24.81;nan
59053;BME280;44843;44.728;10.396;2023-09-18T11:11:52;100368.38;;;25.23;nan
59053;BME280;44843;44.728;10.396;2023-09-18T11:14:22;100368.56;;;25.22;nan
59053;BME280;44843;44.728;10.396;2023-09-18T11:16:49;100383.44;;;25.16;100.00
59053;BME280;44843;44.728;10.396;2023-09-18T11:19:18;100381.59;;;25.32;nan
59053;BME280;44843;44.728;10.396;2023-09-18T11:21:45;100382.41;;;25.47;nan
59053;BME280;44843;44.728;10.396;2023-09-18T11:24:20;100384.69;;;25.65;nan
59053;BME280;44843;44.728;10.396;2023-09-18T11:26:47;100377.75;;;25.70;nan
59053;BME280;44843;44.728;10.396;2023-09-18T11:29:16;100380.06;;;25.74;nan
59053;BME280;44843;44.728;10.396;2023-09-18T11:31:52;100372.59;;;26.05;nan
59053;BME280;44843;44.728;10.396;2023-09-18T11:34:29;100367.44;;;26.04;nan
59053;BME280;44843;44.728;10.396;2023-09-18T11:39:39;100357.78;;;26.24;nan
59053;BME280;44843;44.728;10.396;2023-09-18T11:42:12;100348.56;;;26.27;nan
59053;BME280;44843;44.728;10.396;2023-09-18T11:44:40;100344.84;;;26.28;nan
59053;BME280;44843;44.728;10.396;2023-09-18T11:47:16;100344.03;;;26.27;nan
59053;BME280;44843;44.728;10.396;2023-09-18T11:49:55;61389.06;;;-146.16;100.00
59053;BME280;44843;44.728;10.396;2023-09-18T11:52:24;100347.84;;;26.18;nan
59053;BME280;44843;44.728;10.396;2023-09-18T11:54:50;100354.28;;;26.24;nan
59053;BME280;44843;44.728;10.396;2023-09-18T11:57:17;100348.69;;;26.19;nan
59053;BME280;44843;44.728;10.396;2023-09-18T11:59:43;100344.31;;;26.11;nan
59053;BME280;44843;44.728;10.396;2023-09-18T12:02:12;100335.25;;;26.12;nan
59053;BME280;44843;44.728;10.396;2023-09-18T12:04:46;100315.00;;;25.96;nan
59053;BME280;44843;44.728;10.396;2023-09-18T12:07:12;100327.25;;;25.90;nan
59053;BME280;44843;44.728;10.396;2023-09-18T12:09:39;100328.09;;;25.91;nan
59053;BME280;44843;44.728;10.396;2023-09-18T12:12:08;100332.13;;;25.87;nan
59053;BME280;44843;44.728;10.396;2023-09-18T12:14:34;100335.19;;;25.84;nan
59053;BME280;44843;44.728;10.396;2023-09-18T12:17:02;100347.47;;;25.78;nan
59053;BME280;44843;44.728;10.396;2023-09-18T12:19:29;100337.78;;;25.77;nan
59053;BME280;44843;44.728;10.396;2023-09-18T12:21:55;100336.63;;;25.86;nan
59053;BME280;44843;44.728;10.396;2023-09-18T12:24:22;100332.31;;;25.85;nan
59053;BME280;44843;44.728;10.396;2023-09-18T12:26:48;100323.50;;;25.85;nan
59053;BME280;44843;44.728;10.396;2023-09-18T12:29:14;100339.34;;;26.08;nan
59053;BME280;44843;44.728;10.396;2023-09-18T12:31:40;100330.09;;;26.10;nan
59053;BME280;44843;44.728;10.396;2023-09-18T12:34:20;100314.34;;;26.16;nan
59053;BME280;44843;44.728;10.396;2023-09-18T12:36:50;100311.13;;;26.27;nan
59053;BME280;44843;44.728;10.396;2023-09-18T12:39:16;100305.47;;;26.43;nan
59053;BME280;44843;44.728;10.396;2023-09-18T12:41:42;100284.59;;;26.54;nan
59053;BME280;44843;44.728;10.396;2023-09-18T12:44:08;100289.25;;;26.73;nan
59053;BME280;44843;44.728;10.396;2023-09-18T12:46:35;100290.97;;;26.81;nan
59053;BME280;44843;44.728;10.396;2023-09-18T12:49:21;100301.88;;;26.86;nan
59053;BME280;44843;44.728;10.396;2023-09-18T12:51:58;100283.97;;;26.86;nan
59053;BME280;44843;44.728;10.396;2023-09-18T12:54:37;100264.69;;;26.98;nan
59053;BME280;44843;44.728;10.396;2023-09-18T12:57:05;100268.81;;;27.07;nan
59053;BME280;44843;44.728;10.396;2023-09-18T12:59:32;100258.56;;;27.10;nan
59053;BME280;44843;44.728;10.396;2023-09-18T13:01:58;100250.16;;;27.20;nan
59053;BME280;44843;44.728;10.396;2023-09-18T13:04:24;100244.25;;;27.38;nan
59053;BME280;44843;44.728;10.396;2023-09-18T13:07:08;100239.66;;;27.49;100.00
59053;BME280;44843;44.728;10.396;2023-09-18T13:09:34;100235.22;;;27.66;nan